sensor_id;sensor_type;location;lat;lon;timestamp;P1;durP1;ratioP1;P2;durP2;ratioP2
62258;SDS011;48241;48.824;10.102;2023-08-06T00:01:06;3.90;;;3.55;;
62258;SDS011;48241;48.824;10.102;2023-08-06T00:03:32;4.72;;;3.85;;
62258;SDS011;48241;48.824;10.102;2023-08-06T00:05:58;5.97;;;4.15;;
62258;SDS011;48241;48.824;10.102;2023-08-06T00:08:23;5.55;;;4.25;;
62258;SDS011;48241;48.824;10.102;2023-08-06T00:10:49;5.20;;;4.70;;
62258;SDS011;48241;48.824;10.102;2023-08-06T00:13:14;4.60;;;4.20;;
62258;SDS011;48241;48.824;10.102;2023-08-06T00:15:40;4.32;;;3.95;;
62258;SDS011;48241;48.824;10.102;2023-08-06T00:18:06;4.22;;;3.83;;
62258;SDS011;48241;48.824;10.102;2023-08-06T00:20:46;3.90;;;3.60;;
62258;SDS011;48241;48.824;10.102;2023-08-06T00:23:12;3.85;;;3.33;;
62258;SDS011;48241;48.824;10.102;2023-08-06T00:25:40;4.75;;;3.92;;
62258;SDS011;48241;48.824;10.102;2023-08-06T00:28:06;5.30;;;3.90;;
62258;SDS011;48241;48.824;10.102;2023-08-06T00:30:35;4.80;;;4.13;;
62258;SDS011;48241;48.824;10.102;2023-08-06T00:33:00;4.07;;;3.55;;
62258;SDS011;48241;48.824;10.102;2023-08-06T00:35:26;3.90;;;3.47;;
62258;SDS011;48241;48.824;10.102;2023-08-06T00:37:52;6.03;;;3.70;;
62258;SDS011;48241;48.824;10.102;2023-08-06T00:40:19;4.50;;;3.90;;
62258;SDS011;48241;48.824;10.102;2023-08-06T00:42:48;4.85;;;3.88;;
62258;SDS011;48241;48.824;10.102;2023-08-06T00:45:13;4.50;;;3.92;;
62258;SDS011;48241;48.824;10.102;2023-08-06T00:47:39;4.05;;;3.63;;
62258;SDS011;48241;48.824;10.102;2023-08-06T00:50:08;5.30;;;4.13;;
62258;SDS011;48241;48.824;10.102;2023-08-06T00:52:34;5.32;;;3.83;;
62258;SDS011;48241;48.824;10.102;2023-08-06T00:55:01;8.23;;;4.25;;
62258;SDS011;48241;48.824;10.102;2023-08-06T00:57:27;4.30;;;3.90;;
62258;SDS011;48241;48.824;10.102;2023-08-06T00:59:52;5.53;;;4.13;;
62258;SDS011;48241;48.824;10.102;2023-08-06T01:02:19;5.40;;;4.40;;
62258;SDS011;48241;48.824;10.102;2023-08-06T01:04:44;4.40;;;4.00;;
62258;SDS011;48241;48.824;10.102;2023-08-06T01:07:55;4.78;;;4.28;;
62258;SDS011;48241;48.824;10.102;2023-08-06T01:10:29;6.28;;;4.35;;
62258;SDS011;48241;48.824;10.102;2023-08-06T01:13:16;4.50;;;4.10;;
62258;SDS011;48241;48.824;10.102;2023-08-06T01:16:01;5.70;;;4.22;;
62258;SDS011;48241;48.824;10.102;2023-08-06T01:18:28;4.60;;;4.15;;
62258;SDS011;48241;48.824;10.102;2023-08-06T01:20:54;4.70;;;4.30;;
62258;SDS011;48241;48.824;10.102;2023-08-06T01:23:19;5.55;;;4.43;;
62258;SDS011;48241;48.824;10.102;2023-08-06T01:25:52;4.63;;;4.22;;
62258;SDS011;48241;48.824;10.102;2023-08-06T01:31:27;4.70;;;4.25;;
62258;SDS011;48241;48.824;10.102;2023-08-06T01:34:09;8.65;;;4.28;;
62258;SDS011;48241;48.824;10.102;2023-08-06T01:36:56;5.35;;;4.22;;
62258;SDS011;48241;48.824;10.102;2023-08-06T01:39:24;5.32;;;4.25;;
62258;SDS011;48241;48.824;10.102;2023-08-06T01:41:50;4.55;;;3.53;;
62258;SDS011;48241;48.824;10.102;2023-08-06T01:44:15;4.75;;;3.75;;
62258;SDS011;48241;48.824;10.102;2023-08-06T01:46:41;5.75;;;3.70;;
62258;SDS011;48241;48.824;10.102;2023-08-06T01:49:07;5.55;;;3.95;;
62258;SDS011;48241;48.824;10.102;2023-08-06T01:51:32;3.75;;;3.45;;
62258;SDS011;48241;48.824;10.102;2023-08-06T01:53:58;4.68;;;3.92;;
62258;SDS011;48241;48.824;10.102;2023-08-06T01:56:24;4.43;;;3.90;;
62258;SDS011;48241;48.824;10.102;2023-08-06T01:58:49;4.88;;;3.75;;
62258;SDS011;48241;48.824;10.102;2023-08-06T02:01:15;3.63;;;3.33;;
62258;SDS011;48241;48.824;10.102;2023-08-06T02:03:41;6.57;;;3.80;;
62258;SDS011;48241;48.824;10.102;2023-08-06T02:06:06;4.35;;;3.40;;
62258;SDS011;48241;48.824;10.102;2023-08-06T02:08:32;4.13;;;3.55;;
62258;SDS011;48241;48.824;10.102;2023-08-06T02:10:57;3.75;;;3.28;;
62258;SDS011;48241;48.824;10.102;2023-08-06T02:13:23;4.88;;;3.45;;
62258;SDS011;48241;48.824;10.102;2023-08-06T02:15:49;4.03;;;3.63;;
62258;SDS011;48241;48.824;10.102;2023-08-06T02:18:15;4.15;;;3.53;;
62258;SDS011;48241;48.824;10.102;2023-08-06T02:20:41;3.88;;;3.40;;
62258;SDS011;48241;48.824;10.102;2023-08-06T02:23:07;3.40;;;3.10;;
62258;SDS011;48241;48.824;10.102;2023-08-06T02:25:33;3.95;;;3.50;;
62258;SDS011;48241;48.824;10.102;2023-08-06T02:27:59;4.25;;;3.40;;
62258;SDS011;48241;48.824;10.102;2023-08-06T02:30:25;4.38;;;3.70;;
62258;SDS011;48241;48.824;10.102;2023-08-06T02:32:50;4.57;;;3.30;;
62258;SDS011;48241;48.824;10.102;2023-08-06T02:35:16;5.97;;;3.60;;
62258;SDS011;48241;48.824;10.102;2023-08-06T02:37:43;4.22;;;3.55;;
62258;SDS011;48241;48.824;10.102;2023-08-06T02:40:08;3.63;;;3.33;;
62258;SDS011;48241;48.824;10.102;2023-08-06T02:42:34;4.40;;;3.70;;
62258;SDS011;48241;48.824;10.102;2023-08-06T02:45:00;5.03;;;3.85;;
62258;SDS011;48241;48.824;10.102;2023-08-06T02:47:25;5.82;;;3.50;;
62258;SDS011;48241;48.824;10.102;2023-08-06T02:49:51;6.00;;;3.67;;
62258;SDS011;48241;48.824;10.102;2023-08-06T02:52:16;5.32;;;3.72;;
62258;SDS011;48241;48.824;10.102;2023-08-06T02:54:42;6.30;;;4.07;;
62258;SDS011;48241;48.824;10.102;2023-08-06T02:57:07;4.75;;;3.60;;
62258;SDS011;48241;48.824;10.102;2023-08-06T02:59:33;4.40;;;3.63;;
62258;SDS011;48241;48.824;10.102;2023-08-06T03:01:59;5.07;;;3.63;;
62258;SDS011;48241;48.824;10.102;2023-08-06T03:04:24;5.93;;;3.92;;
62258;SDS011;48241;48.824;10.102;2023-08-06T03:06:50;4.30;;;3.90;;
62258;SDS011;48241;48.824;10.102;2023-08-06T03:09:16;4.25;;;3.60;;
62258;SDS011;48241;48.824;10.102;2023-08-06T03:11:42;3.78;;;3.42;;
62258;SDS011;48241;48.824;10.102;2023-08-06T03:14:07;4.07;;;3.67;;
62258;SDS011;48241;48.824;10.102;2023-08-06T03:16:33;5.05;;;3.88;;
62258;SDS011;48241;48.824;10.102;2023-08-06T03:18:59;4.07;;;3.67;;
62258;SDS011;48241;48.824;10.102;2023-08-06T03:21:25;5.18;;;3.53;;
62258;SDS011;48241;48.824;10.102;2023-08-06T03:23:50;4.43;;;3.60;;
62258;SDS011;48241;48.824;10.102;2023-08-06T03:26:16;4.05;;;3.65;;
62258;SDS011;48241;48.824;10.102;2023-08-06T03:28:41;4.32;;;3.67;;
62258;SDS011;48241;48.824;10.102;2023-08-06T03:31:07;4.90;;;3.92;;
62258;SDS011;48241;48.824;10.102;2023-08-06T03:33:33;5.70;;;3.70;;
62258;SDS011;48241;48.824;10.102;2023-08-06T03:35:58;4.45;;;3.42;;
62258;SDS011;48241;48.824;10.102;2023-08-06T03:38:24;7.53;;;3.60;;
62258;SDS011;48241;48.824;10.102;2023-08-06T03:40:49;4.47;;;3.25;;
62258;SDS011;48241;48.824;10.102;2023-08-06T03:43:15;5.95;;;3.53;;
62258;SDS011;48241;48.824;10.102;2023-08-06T03:45:41;5.13;;;3.28;;
62258;SDS011;48241;48.824;10.102;2023-08-06T03:48:07;3.72;;;3.35;;
62258;SDS011;48241;48.824;10.102;2023-08-06T03:50:33;3.70;;;3.15;;
62258;SDS011;48241;48.824;10.102;2023-08-06T03:52:59;3.40;;;3.10;;
62258;SDS011;48241;48.824;10.102;2023-08-06T03:55:24;3.88;;;3.15;;
62258;SDS011;48241;48.824;10.102;2023-08-06T03:57:50;5.72;;;3.25;;
62258;SDS011;48241;48.824;10.102;2023-08-06T04:00:16;3.92;;;3.38;;
62258;SDS011;48241;48.824;10.102;2023-08-06T04:02:41;5.20;;;3.75;;
62258;SDS011;48241;48.824;10.102;2023-08-06T04:05:08;4.90;;;3.20;;
62258;SDS011;48241;48.824;10.102;2023-08-06T04:07:33;4.75;;;3.20;;
62258;SDS011;48241;48.824;10.102;2023-08-06T04:10:00;3.53;;;3.15;;
62258;SDS011;48241;48.824;10.102;2023-08-06T04:12:27;4.15;;;2.80;;
62258;SDS011;48241;48.824;10.102;2023-08-06T04:14:53;3.92;;;3.15;;
62258;SDS011;48241;48.824;10.102;2023-08-06T04:17:20;3.72;;;2.88;;
62258;SDS011;48241;48.824;10.102;2023-08-06T04:19:55;5.57;;;2.88;;
62258;SDS011;48241;48.824;10.102;2023-08-06T04:22:23;4.32;;;2.83;;
62258;SDS011;48241;48.824;10.102;2023-08-06T04:24:49;3.65;;;2.75;;
62258;SDS011;48241;48.824;10.102;2023-08-06T04:27:15;3.55;;;2.92;;
62258;SDS011;48241;48.824;10.102;2023-08-06T04:29:41;3.20;;;2.90;;
62258;SDS011;48241;48.824;10.102;2023-08-06T04:32:08;3.63;;;2.70;;
62258;SDS011;48241;48.824;10.102;2023-08-06T04:34:35;5.45;;;3.28;;
62258;SDS011;48241;48.824;10.102;2023-08-06T04:37:01;3.40;;;2.17;;
62258;SDS011;48241;48.824;10.102;2023-08-06T04:39:27;3.83;;;2.10;;
62258;SDS011;48241;48.824;10.102;2023-08-06T04:41:53;3.83;;;2.50;;
62258;SDS011;48241;48.824;10.102;2023-08-06T04:44:20;3.60;;;2.20;;
62258;SDS011;48241;48.824;10.102;2023-08-06T04:46:46;3.38;;;2.30;;
62258;SDS011;48241;48.824;10.102;2023-08-06T04:49:11;3.60;;;2.08;;
62258;SDS011;48241;48.824;10.102;2023-08-06T04:51:37;2.80;;;2.05;;
62258;SDS011;48241;48.824;10.102;2023-08-06T04:54:03;2.83;;;2.10;;
62258;SDS011;48241;48.824;10.102;2023-08-06T04:56:29;6.18;;;2.03;;
62258;SDS011;48241;48.824;10.102;2023-08-06T04:58:54;3.10;;;2.10;;
62258;SDS011;48241;48.824;10.102;2023-08-06T05:01:20;4.38;;;2.35;;
62258;SDS011;48241;48.824;10.102;2023-08-06T05:03:46;3.35;;;2.08;;
62258;SDS011;48241;48.824;10.102;2023-08-06T05:06:12;4.30;;;2.05;;
62258;SDS011;48241;48.824;10.102;2023-08-06T05:08:38;5.60;;;2.10;;
62258;SDS011;48241;48.824;10.102;2023-08-06T05:11:03;3.92;;;2.35;;
62258;SDS011;48241;48.824;10.102;2023-08-06T05:13:29;3.47;;;2.13;;
62258;SDS011;48241;48.824;10.102;2023-08-06T05:15:54;3.78;;;2.22;;
62258;SDS011;48241;48.824;10.102;2023-08-06T05:18:20;5.18;;;2.10;;
62258;SDS011;48241;48.824;10.102;2023-08-06T05:20:46;4.07;;;2.40;;
62258;SDS011;48241;48.824;10.102;2023-08-06T05:23:11;2.50;;;2.20;;
62258;SDS011;48241;48.824;10.102;2023-08-06T05:25:37;4.13;;;2.08;;
62258;SDS011;48241;48.824;10.102;2023-08-06T05:28:03;3.97;;;2.25;;
62258;SDS011;48241;48.824;10.102;2023-08-06T05:30:29;2.90;;;2.30;;
62258;SDS011;48241;48.824;10.102;2023-08-06T05:32:55;3.80;;;2.30;;
62258;SDS011;48241;48.824;10.102;2023-08-06T05:35:21;4.20;;;2.30;;
62258;SDS011;48241;48.824;10.102;2023-08-06T05:37:47;2.88;;;2.20;;
62258;SDS011;48241;48.824;10.102;2023-08-06T05:40:13;3.08;;;2.53;;
62258;SDS011;48241;48.824;10.102;2023-08-06T05:42:39;3.45;;;2.17;;
62258;SDS011;48241;48.824;10.102;2023-08-06T05:45:05;3.00;;;2.33;;
62258;SDS011;48241;48.824;10.102;2023-08-06T05:47:31;5.57;;;2.80;;
62258;SDS011;48241;48.824;10.102;2023-08-06T05:49:57;4.07;;;2.20;;
62258;SDS011;48241;48.824;10.102;2023-08-06T05:52:22;4.43;;;2.50;;
62258;SDS011;48241;48.824;10.102;2023-08-06T05:54:48;3.88;;;2.47;;
62258;SDS011;48241;48.824;10.102;2023-08-06T05:57:13;3.42;;;2.38;;
62258;SDS011;48241;48.824;10.102;2023-08-06T05:59:40;3.78;;;2.50;;
62258;SDS011;48241;48.824;10.102;2023-08-06T06:02:06;3.63;;;2.40;;
62258;SDS011;48241;48.824;10.102;2023-08-06T06:04:31;4.18;;;2.22;;
62258;SDS011;48241;48.824;10.102;2023-08-06T06:06:57;3.70;;;1.67;;
62258;SDS011;48241;48.824;10.102;2023-08-06T06:09:22;2.15;;;1.65;;
62258;SDS011;48241;48.824;10.102;2023-08-06T06:11:48;2.72;;;1.40;;
62258;SDS011;48241;48.824;10.102;2023-08-06T06:14:15;3.83;;;1.70;;
62258;SDS011;48241;48.824;10.102;2023-08-06T06:16:41;3.60;;;1.52;;
62258;SDS011;48241;48.824;10.102;2023-08-06T06:19:07;3.30;;;1.75;;
62258;SDS011;48241;48.824;10.102;2023-08-06T06:21:32;2.58;;;1.55;;
62258;SDS011;48241;48.824;10.102;2023-08-06T06:23:58;2.53;;;1.50;;
62258;SDS011;48241;48.824;10.102;2023-08-06T06:26:23;2.38;;;1.45;;
62258;SDS011;48241;48.824;10.102;2023-08-06T06:28:49;1.20;;;1.08;;
62258;SDS011;48241;48.824;10.102;2023-08-06T06:31:14;3.20;;;0.95;;
62258;SDS011;48241;48.824;10.102;2023-08-06T06:33:40;1.83;;;1.20;;
62258;SDS011;48241;48.824;10.102;2023-08-06T06:36:05;2.67;;;0.90;;
62258;SDS011;48241;48.824;10.102;2023-08-06T06:38:32;3.20;;;1.10;;
62258;SDS011;48241;48.824;10.102;2023-08-06T06:40:58;1.45;;;1.10;;
62258;SDS011;48241;48.824;10.102;2023-08-06T06:43:25;1.33;;;0.90;;
62258;SDS011;48241;48.824;10.102;2023-08-06T06:45:58;1.65;;;0.82;;
62258;SDS011;48241;48.824;10.102;2023-08-06T06:48:25;1.80;;;0.98;;
62258;SDS011;48241;48.824;10.102;2023-08-06T06:50:57;1.67;;;0.70;;
62258;SDS011;48241;48.824;10.102;2023-08-06T06:53:23;1.83;;;0.80;;
62258;SDS011;48241;48.824;10.102;2023-08-06T06:55:54;3.90;;;1.23;;
62258;SDS011;48241;48.824;10.102;2023-08-06T06:58:20;1.70;;;0.77;;
62258;SDS011;48241;48.824;10.102;2023-08-06T07:00:46;2.45;;;0.80;;
62258;SDS011;48241;48.824;10.102;2023-08-06T07:03:13;2.88;;;0.70;;
62258;SDS011;48241;48.824;10.102;2023-08-06T07:05:39;4.40;;;1.02;;
62258;SDS011;48241;48.824;10.102;2023-08-06T07:08:05;2.65;;;1.05;;
62258;SDS011;48241;48.824;10.102;2023-08-06T07:10:30;2.42;;;0.88;;
62258;SDS011;48241;48.824;10.102;2023-08-06T07:12:56;1.85;;;0.90;;
62258;SDS011;48241;48.824;10.102;2023-08-06T07:15:22;1.77;;;0.90;;
62258;SDS011;48241;48.824;10.102;2023-08-06T07:17:47;2.88;;;0.80;;
62258;SDS011;48241;48.824;10.102;2023-08-06T07:20:13;2.20;;;0.80;;
62258;SDS011;48241;48.824;10.102;2023-08-06T07:22:38;2.78;;;0.70;;
62258;SDS011;48241;48.824;10.102;2023-08-06T07:25:04;1.08;;;0.68;;
62258;SDS011;48241;48.824;10.102;2023-08-06T07:27:30;2.03;;;0.70;;
62258;SDS011;48241;48.824;10.102;2023-08-06T07:29:56;0.88;;;0.65;;
62258;SDS011;48241;48.824;10.102;2023-08-06T07:32:23;1.75;;;0.73;;
62258;SDS011;48241;48.824;10.102;2023-08-06T07:34:49;2.10;;;0.70;;
62258;SDS011;48241;48.824;10.102;2023-08-06T07:37:14;1.67;;;0.90;;
62258;SDS011;48241;48.824;10.102;2023-08-06T07:39:40;1.25;;;0.70;;
62258;SDS011;48241;48.824;10.102;2023-08-06T07:42:07;1.33;;;0.52;;
62258;SDS011;48241;48.824;10.102;2023-08-06T07:44:33;0.60;;;0.60;;
62258;SDS011;48241;48.824;10.102;2023-08-06T07:46:58;0.85;;;0.60;;
62258;SDS011;48241;48.824;10.102;2023-08-06T07:49:24;1.60;;;0.57;;
62258;SDS011;48241;48.824;10.102;2023-08-06T07:51:49;1.17;;;0.50;;
62258;SDS011;48241;48.824;10.102;2023-08-06T07:54:19;0.65;;;0.40;;
62258;SDS011;48241;48.824;10.102;2023-08-06T07:56:45;1.52;;;0.60;;
62258;SDS011;48241;48.824;10.102;2023-08-06T07:59:10;0.68;;;0.50;;
62258;SDS011;48241;48.824;10.102;2023-08-06T08:01:36;0.40;;;0.40;;
62258;SDS011;48241;48.824;10.102;2023-08-06T08:04:02;0.73;;;0.40;;
62258;SDS011;48241;48.824;10.102;2023-08-06T08:06:27;0.52;;;0.40;;
62258;SDS011;48241;48.824;10.102;2023-08-06T08:08:53;0.65;;;0.40;;
62258;SDS011;48241;48.824;10.102;2023-08-06T08:11:20;0.82;;;0.35;;
62258;SDS011;48241;48.824;10.102;2023-08-06T08:13:45;0.85;;;0.40;;
62258;SDS011;48241;48.824;10.102;2023-08-06T08:16:11;0.40;;;0.40;;
62258;SDS011;48241;48.824;10.102;2023-08-06T08:18:36;0.43;;;0.30;;
62258;SDS011;48241;48.824;10.102;2023-08-06T08:21:02;0.30;;;0.30;;
62258;SDS011;48241;48.824;10.102;2023-08-06T08:23:27;0.90;;;0.32;;
62258;SDS011;48241;48.824;10.102;2023-08-06T08:25:53;0.30;;;0.30;;
62258;SDS011;48241;48.824;10.102;2023-08-06T08:28:19;0.47;;;0.30;;
62258;SDS011;48241;48.824;10.102;2023-08-06T08:30:45;0.77;;;0.38;;
62258;SDS011;48241;48.824;10.102;2023-08-06T08:33:10;0.30;;;0.22;;
62258;SDS011;48241;48.824;10.102;2023-08-06T08:35:36;0.80;;;0.30;;
62258;SDS011;48241;48.824;10.102;2023-08-06T08:38:02;0.80;;;0.30;;
62258;SDS011;48241;48.824;10.102;2023-08-06T08:40:29;0.20;;;0.20;;
62258;SDS011;48241;48.824;10.102;2023-08-06T08:43:01;0.30;;;0.30;;
62258;SDS011;48241;48.824;10.102;2023-08-06T08:45:28;0.30;;;0.30;;
62258;SDS011;48241;48.824;10.102;2023-08-06T08:47:54;0.40;;;0.30;;
62258;SDS011;48241;48.824;10.102;2023-08-06T08:50:20;0.98;;;0.30;;
62258;SDS011;48241;48.824;10.102;2023-08-06T08:52:46;0.20;;;0.20;;
62258;SDS011;48241;48.824;10.102;2023-08-06T08:55:14;0.30;;;0.30;;
62258;SDS011;48241;48.824;10.102;2023-08-06T08:57:40;0.55;;;0.30;;
62258;SDS011;48241;48.824;10.102;2023-08-06T09:00:06;0.50;;;0.20;;
62258;SDS011;48241;48.824;10.102;2023-08-06T09:02:32;0.30;;;0.20;;
62258;SDS011;48241;48.824;10.102;2023-08-06T09:04:59;0.20;;;0.20;;
62258;SDS011;48241;48.824;10.102;2023-08-06T09:07:27;0.40;;;0.30;;
62258;SDS011;48241;48.824;10.102;2023-08-06T09:10:01;0.30;;;0.30;;
62258;SDS011;48241;48.824;10.102;2023-08-06T09:12:28;0.73;;;0.30;;
62258;SDS011;48241;48.824;10.102;2023-08-06T09:14:54;0.65;;;0.30;;
62258;SDS011;48241;48.824;10.102;2023-08-06T09:17:20;0.20;;;0.20;;
62258;SDS011;48241;48.824;10.102;2023-08-06T09:19:46;0.30;;;0.20;;
62258;SDS011;48241;48.824;10.102;2023-08-06T09:22:13;0.32;;;0.32;;
62258;SDS011;48241;48.824;10.102;2023-08-06T09:24:42;0.75;;;0.35;;
62258;SDS011;48241;48.824;10.102;2023-08-06T09:27:11;0.40;;;0.40;;
62258;SDS011;48241;48.824;10.102;2023-08-06T09:29:41;0.30;;;0.30;;
62258;SDS011;48241;48.824;10.102;2023-08-06T09:32:11;0.40;;;0.30;;
62258;SDS011;48241;48.824;10.102;2023-08-06T09:34:43;0.20;;;0.20;;
62258;SDS011;48241;48.824;10.102;2023-08-06T09:37:11;0.28;;;0.20;;
62258;SDS011;48241;48.824;10.102;2023-08-06T09:39:38;0.70;;;0.30;;
62258;SDS011;48241;48.824;10.102;2023-08-06T09:42:06;0.40;;;0.20;;
62258;SDS011;48241;48.824;10.102;2023-08-06T09:44:32;0.22;;;0.22;;
62258;SDS011;48241;48.824;10.102;2023-08-06T09:46:59;0.22;;;0.22;;
62258;SDS011;48241;48.824;10.102;2023-08-06T09:49:29;0.30;;;0.28;;
62258;SDS011;48241;48.824;10.102;2023-08-06T09:52:10;0.20;;;0.20;;
62258;SDS011;48241;48.824;10.102;2023-08-06T09:54:37;0.10;;;0.10;;
62258;SDS011;48241;48.824;10.102;2023-08-06T09:57:03;0.30;;;0.20;;
62258;SDS011;48241;48.824;10.102;2023-08-06T09:59:30;0.65;;;0.10;;
62258;SDS011;48241;48.824;10.102;2023-08-06T10:05:31;0.30;;;0.30;;
62258;SDS011;48241;48.824;10.102;2023-08-06T23:32:27;3.67;;;1.40;;
62258;SDS011;48241;48.824;10.102;2023-08-06T23:34:53;2.67;;;1.45;;
62258;SDS011;48241;48.824;10.102;2023-08-06T23:37:19;2.97;;;1.50;;
62258;SDS011;48241;48.824;10.102;2023-08-06T23:39:45;3.17;;;1.25;;
62258;SDS011;48241;48.824;10.102;2023-08-06T23:42:11;1.90;;;1.30;;
62258;SDS011;48241;48.824;10.102;2023-08-06T23:44:36;2.10;;;1.20;;
62258;SDS011;48241;48.824;10.102;2023-08-06T23:47:03;1.73;;;1.00;;
62258;SDS011;48241;48.824;10.102;2023-08-06T23:49:29;1.90;;;1.23;;
62258;SDS011;48241;48.824;10.102;2023-08-06T23:51:56;4.88;;;1.52;;
62258;SDS011;48241;48.824;10.102;2023-08-06T23:54:22;3.30;;;1.50;;
62258;SDS011;48241;48.824;10.102;2023-08-06T23:56:48;4.10;;;1.48;;
62258;SDS011;48241;48.824;10.102;2023-08-06T23:59:14;2.55;;;1.30;;
